createdAt,value
2022-12-27T19:36:55.549Z,101646.47
2022-12-27T19:39:36.312Z,101640.22
2022-12-27T19:42:07.167Z,101636.75
2022-12-27T19:44:34.356Z,101632.66
2022-12-27T19:47:01.172Z,101629.91
2022-12-27T19:49:44.758Z,101629.53
2022-12-27T19:52:26.196Z,101621.78
2022-12-27T19:55:02.348Z,101619.63
2022-12-27T19:57:29.265Z,101610.47
2022-12-27T19:59:56.283Z,101609.66
2022-12-27T20:02:23.561Z,101607.06
2022-12-27T20:04:50.527Z,101595.63
2022-12-27T20:07:22.754Z,101599.31
2022-12-27T20:09:50.146Z,101600.28
2022-12-27T20:12:17.208Z,101595.28
2022-12-27T20:14:44.046Z,101593.28
2022-12-27T20:17:10.862Z,101593.75
2022-12-27T20:19:37.652Z,101593.91
2022-12-27T20:22:05.907Z,101595.06
2022-12-27T20:24:34.853Z,101597.59
2022-12-27T20:27:01.746Z,101592.41
2022-12-27T20:29:30.213Z,101583.69
2022-12-27T20:31:58.447Z,101578.78
2022-12-27T20:34:25.802Z,101578.28
2022-12-27T20:36:55.045Z,101568.56
2022-12-27T20:39:22.131Z,101568.94
2022-12-27T20:41:49.016Z,101570.59
2022-12-27T20:44:16.053Z,101571.94
2022-12-27T20:46:44.199Z,101569.09
2022-12-27T20:49:11.023Z,101564.72
2022-12-27T20:51:38.125Z,101567.78
2022-12-27T20:54:05.340Z,101562.56
2022-12-27T20:56:32.470Z,101558.13
2022-12-27T20:58:59.411Z,101554.06
2022-12-27T21:01:26.827Z,101549.66
2022-12-27T21:03:55.988Z,101549.78
2022-12-27T21:06:27.401Z,101553.03
2022-12-27T21:08:57.136Z,101565.47
2022-12-27T21:11:30.243Z,101562.94
2022-12-27T21:13:57.529Z,101571.94
2022-12-27T21:16:28.602Z,101570.38
2022-12-27T21:18:56.821Z,101563.06
2022-12-27T21:21:28.644Z,101561.88
2022-12-27T21:23:57.683Z,101563.47
2022-12-27T21:26:29.419Z,101554.97
2022-12-27T21:28:57.288Z,101546.34
2022-12-27T21:31:24.472Z,101551.28
2022-12-27T21:33:51.446Z,101555.97
2022-12-27T21:36:22.036Z,101547.06
2022-12-27T21:38:49.451Z,101550.31
2022-12-27T21:41:27.431Z,101557.59
2022-12-27T21:43:54.441Z,101551.59
2022-12-27T21:46:28.151Z,101538.28
2022-12-27T21:49:07.346Z,101545.03
2022-12-27T21:51:36.735Z,101540.81
2022-12-27T21:54:04.332Z,101536.38
2022-12-27T21:56:31.611Z,101528.47
2022-12-27T21:58:59.738Z,101531.84
2022-12-27T22:01:30.160Z,101522.91
2022-12-27T22:03:59.318Z,101525.19
2022-12-27T22:06:37.820Z,101528.44
2022-12-27T22:09:10.327Z,101520.06
2022-12-27T22:11:39.381Z,101522.31
2022-12-27T22:14:06.937Z,101515.75
2022-12-27T22:16:39.161Z,101506.56
2022-12-27T22:19:09.167Z,101507.78
2022-12-27T22:21:37.926Z,101508.22
2022-12-27T22:24:05.561Z,101505.63
2022-12-27T22:26:37.195Z,101508.25
2022-12-27T22:29:05.577Z,101505.72
2022-12-27T22:31:38.037Z,101503.13
2022-12-27T22:34:06.004Z,101504.75
2022-12-27T22:36:34.013Z,101516.66
2022-12-27T22:39:01.790Z,101516.09
2022-12-27T22:41:34.782Z,101507.28
2022-12-27T22:44:06.080Z,101501.69
2022-12-27T22:49:20.719Z,101503.63
2022-12-27T22:51:47.596Z,101505.97
2022-12-27T22:54:14.378Z,101506.56
2022-12-27T22:56:42.682Z,101491.66
2022-12-27T22:59:12.538Z,101497.47
2022-12-27T23:01:41.271Z,101492.75
2022-12-27T23:04:11.609Z,101491.47
2022-12-27T23:06:40.052Z,101487.38
2022-12-27T23:09:07.810Z,101488.44
2022-12-27T23:11:38.669Z,101482.47
2022-12-27T23:14:11.699Z,101478.03
2022-12-27T23:16:42.867Z,101469.69
2022-12-27T23:19:10.689Z,101470.91
2022-12-27T23:21:37.855Z,101475.00
2022-12-27T23:24:05.591Z,101475.31
2022-12-27T23:26:32.729Z,101468.69
2022-12-27T23:28:59.742Z,101465.91
2022-12-27T23:31:27.523Z,101460.66
2022-12-27T23:33:54.881Z,101451.56
2022-12-27T23:36:22.461Z,101449.44
2022-12-27T23:38:49.797Z,101444.25
2022-12-27T23:41:23.228Z,101441.53
2022-12-27T23:43:54.590Z,101447.00
2022-12-27T23:46:29.369Z,101439.81
2022-12-27T23:49:02.086Z,101434.84
2022-12-27T23:51:30.518Z,101426.34
2022-12-27T23:53:57.754Z,101434.94
2022-12-27T23:56:31.334Z,101439.03
2022-12-27T23:59:01.176Z,101440.44
